createdAt,value
2023-01-28T00:01:20.355Z,101276.34
2023-01-28T00:06:42.417Z,101265.16
2023-01-28T00:12:04.524Z,101251.41
2023-01-28T00:17:26.470Z,101277.16
2023-01-28T00:22:51.085Z,101276.09
2023-01-28T00:28:13.848Z,101277.44
2023-01-28T00:33:36.922Z,101260.78
2023-01-28T00:38:59.606Z,101273.69
2023-01-28T00:44:21.480Z,101268.50
2023-01-28T00:49:43.320Z,101264.31
2023-01-28T00:55:05.695Z,101247.69
2023-01-28T01:00:27.590Z,101270.66
2023-01-28T01:05:49.441Z,101252.84
2023-01-28T01:11:11.801Z,101256.63
2023-01-28T01:16:33.714Z,101260.16
2023-01-28T01:21:57.051Z,101271.34
2023-01-28T01:27:19.091Z,101261.75
2023-01-28T01:32:40.955Z,101246.72
2023-01-28T01:38:02.835Z,101255.16
2023-01-28T01:43:24.756Z,101263.09
2023-01-28T01:48:46.931Z,101269.59
2023-01-28T01:54:09.080Z,101253.63
2023-01-28T01:59:34.040Z,101246.84
2023-01-28T02:04:55.970Z,101266.94
2023-01-28T02:10:18.683Z,101257.13
2023-01-28T02:15:40.892Z,101249.34
2023-01-28T02:21:21.395Z,101274.72
2023-01-28T02:26:50.307Z,101274.13
2023-01-28T02:32:25.406Z,101278.31
2023-01-28T02:37:54.016Z,101261.16
2023-01-28T02:43:15.851Z,101264.38
2023-01-28T02:48:37.786Z,101276.28
2023-01-28T02:54:07.693Z,101268.72
2023-01-28T02:59:42.471Z,101274.53
2023-01-28T03:05:21.309Z,101261.59
2023-01-28T03:10:43.190Z,101272.25
2023-01-28T03:16:05.174Z,101281.63
2023-01-28T03:21:37.060Z,101280.84
2023-01-28T03:27:24.438Z,101271.19
2023-01-28T03:32:46.625Z,101280.34
2023-01-28T03:38:09.951Z,101255.88
2023-01-28T03:43:32.453Z,101276.31
2023-01-28T03:48:54.292Z,101262.75
2023-01-28T03:54:16.132Z,101279.75
2023-01-28T03:59:37.960Z,101278.28
2023-01-28T04:04:59.839Z,101280.84
2023-01-28T04:10:22.257Z,101269.59
2023-01-28T04:15:44.607Z,101271.25
2023-01-28T04:21:06.545Z,101284.09
2023-01-28T04:26:28.821Z,101271.38
2023-01-28T04:31:50.731Z,101256.59
2023-01-28T04:37:12.697Z,101284.06
2023-01-28T04:42:34.609Z,101282.38
2023-01-28T04:47:56.855Z,101270.13
2023-01-28T04:53:18.966Z,101285.66
2023-01-28T04:58:40.810Z,101268.63
2023-01-28T05:04:02.846Z,101284.84
2023-01-28T05:09:24.760Z,101284.97
2023-01-28T05:14:46.601Z,101288.16
2023-01-28T05:20:09.234Z,101293.22
2023-01-28T05:25:31.081Z,101273.56
2023-01-28T05:30:52.985Z,101296.06
2023-01-28T05:36:15.013Z,101297.91
2023-01-28T05:41:36.840Z,101296.88
2023-01-28T05:46:58.714Z,101305.13
2023-01-28T05:52:20.577Z,101298.25
2023-01-28T05:57:42.528Z,101311.41
2023-01-28T06:03:04.563Z,101306.47
2023-01-28T06:08:26.445Z,101311.53
2023-01-28T06:13:48.380Z,101315.72
2023-01-28T06:19:10.356Z,101321.59
2023-01-28T06:24:32.196Z,101330.66
2023-01-28T06:29:54.213Z,101326.56
2023-01-28T06:35:16.129Z,101324.63
2023-01-28T06:40:38.130Z,101328.38
2023-01-28T06:46:00.403Z,101337.53
2023-01-28T06:51:22.348Z,101331.50
2023-01-28T06:56:44.303Z,101320.97
2023-01-28T07:02:06.231Z,101348.53
2023-01-28T07:07:28.204Z,101348.06
2023-01-28T07:12:50.085Z,101350.97
2023-01-28T07:18:12.052Z,101355.75
2023-01-28T07:23:33.929Z,101354.75
2023-01-28T07:28:55.877Z,101348.75
2023-01-28T07:34:17.718Z,101363.84
2023-01-28T07:39:39.650Z,101364.31
2023-01-28T07:45:01.566Z,101355.34
2023-01-28T07:50:24.076Z,101367.94
2023-01-28T07:55:46.387Z,101367.66
2023-01-28T08:01:08.356Z,101365.41
2023-01-28T08:06:30.519Z,101361.78
2023-01-28T08:11:53.296Z,101362.63
2023-01-28T08:17:15.248Z,101360.91
2023-01-28T08:22:37.184Z,101362.47
2023-01-28T08:27:59.039Z,101344.69
2023-01-28T08:33:20.949Z,101360.50
2023-01-28T08:38:42.860Z,101360.38
2023-01-28T08:44:04.880Z,101367.78
2023-01-28T08:49:26.775Z,101359.09
2023-01-28T08:54:48.677Z,101369.53
2023-01-28T09:00:11.570Z,101373.81
2023-01-28T09:05:37.674Z,101358.50
2023-01-28T09:11:00.357Z,101366.13
2023-01-28T09:16:22.236Z,101367.38
2023-01-28T09:21:44.086Z,101385.47
2023-01-28T09:27:06.600Z,101391.72
2023-01-28T09:32:28.411Z,101392.34
2023-01-28T09:37:50.965Z,101402.59
2023-01-28T09:43:18.748Z,101395.75
2023-01-28T09:48:45.168Z,101390.66
2023-01-28T09:54:33.075Z,101393.22
2023-01-28T09:59:54.975Z,101383.91
2023-01-28T10:05:26.725Z,101387.00
2023-01-28T10:10:55.919Z,101367.44
2023-01-28T10:17:00.248Z,101376.91
2023-01-28T10:22:28.933Z,101377.75
2023-01-28T10:27:51.691Z,101374.03
2023-01-28T10:33:16.239Z,101371.03
2023-01-28T10:38:38.151Z,101367.31
2023-01-28T10:44:00.016Z,101369.94
2023-01-28T10:49:27.339Z,101355.66
2023-01-28T10:55:02.888Z,101357.00
2023-01-28T11:00:51.024Z,101363.78
2023-01-28T11:06:28.043Z,101340.97
2023-01-28T11:11:49.883Z,101355.88
2023-01-28T11:17:18.667Z,101331.72
2023-01-28T11:22:43.073Z,101324.44
2023-01-28T11:28:20.022Z,101344.19
2023-01-28T11:33:58.695Z,101346.75
2023-01-28T11:39:25.231Z,101315.19
2023-01-28T11:44:47.983Z,101338.00
2023-01-28T11:50:12.595Z,101332.13
2023-01-28T11:55:41.835Z,101329.59
2023-01-28T12:01:16.734Z,101330.31
2023-01-28T12:06:57.500Z,101326.94
2023-01-28T12:12:42.500Z,101332.78
2023-01-28T12:18:07.421Z,101325.38
2023-01-28T12:24:03.558Z,101332.81
2023-01-28T12:29:28.291Z,101327.84
2023-01-28T12:35:26.756Z,101328.09
2023-01-28T12:41:05.030Z,101322.88
2023-01-28T12:46:38.699Z,101322.09
2023-01-28T12:52:19.492Z,101324.75
2023-01-28T12:57:41.868Z,101326.75
2023-01-28T13:03:15.918Z,101339.50
2023-01-28T13:08:37.827Z,101329.97
2023-01-28T13:13:59.943Z,101328.25
2023-01-28T13:19:24.721Z,101311.66
2023-01-28T13:24:46.677Z,101334.25
2023-01-28T13:30:26.976Z,101329.66
2023-01-28T13:35:55.145Z,101315.00
2023-01-28T13:41:16.988Z,101332.56
2023-01-28T13:46:38.855Z,101332.09
2023-01-28T13:52:33.319Z,101333.44
2023-01-28T13:58:32.491Z,101332.19
2023-01-28T14:04:20.241Z,101326.03
2023-01-28T14:10:00.824Z,101320.97
2023-01-28T14:15:28.705Z,101327.38
2023-01-28T14:20:52.770Z,101315.59
2023-01-28T14:26:38.739Z,101329.53
2023-01-28T14:32:11.911Z,101329.91
2023-01-28T14:37:33.869Z,101329.00
2023-01-28T14:42:57.680Z,101327.00
2023-01-28T14:48:50.737Z,101337.69
2023-01-28T14:54:15.528Z,101343.84
2023-01-28T14:59:46.952Z,101335.25
2023-01-28T15:05:15.405Z,101335.91
2023-01-28T15:10:38.337Z,101320.03
2023-01-28T15:16:00.339Z,101348.16
2023-01-28T15:21:24.337Z,101348.97
2023-01-28T15:26:49.045Z,101358.13
2023-01-28T15:32:29.694Z,101353.56
2023-01-28T15:37:51.620Z,101337.09
2023-01-28T15:43:23.206Z,101363.34
2023-01-28T15:48:51.257Z,101365.31
2023-01-28T15:54:13.203Z,101355.28
2023-01-28T15:59:35.111Z,101362.16
2023-01-28T16:05:02.412Z,101337.34
2023-01-28T16:10:29.731Z,101344.19
2023-01-28T16:15:55.097Z,101346.34
2023-01-28T16:21:29.979Z,101361.06
2023-01-28T16:27:02.857Z,101373.56
2023-01-28T16:32:38.601Z,101354.38
2023-01-28T16:38:00.417Z,101365.84
2023-01-28T16:43:22.390Z,101375.19
2023-01-28T16:48:44.385Z,101367.50
2023-01-28T16:54:06.586Z,101354.59
2023-01-28T16:59:28.423Z,101356.47
2023-01-28T17:04:50.243Z,101356.94
2023-01-28T17:10:12.296Z,101356.44
2023-01-28T17:15:35.572Z,101379.66
2023-01-28T17:21:02.741Z,101349.56
2023-01-28T17:26:24.571Z,101377.13
2023-01-28T17:31:46.559Z,101362.41
2023-01-28T17:37:08.412Z,101360.53
2023-01-28T17:42:30.255Z,101372.19
2023-01-28T17:47:52.063Z,101380.34
2023-01-28T17:53:14.064Z,101371.00
2023-01-28T17:58:35.889Z,101380.69
2023-01-28T18:03:58.911Z,101386.28
2023-01-28T18:09:20.875Z,101384.72
2023-01-28T18:14:42.679Z,101385.63
2023-01-28T18:20:05.946Z,101404.53
2023-01-28T18:25:27.762Z,101406.78
2023-01-28T18:30:49.658Z,101419.69
2023-01-28T18:36:11.655Z,101411.41
2023-01-28T18:41:33.478Z,101420.16
2023-01-28T18:46:56.022Z,101416.41
2023-01-28T18:52:17.900Z,101420.69
2023-01-28T18:57:39.700Z,101411.66
2023-01-28T19:03:02.153Z,101400.00
2023-01-28T19:08:23.968Z,101401.00
2023-01-28T19:13:45.802Z,101382.19
2023-01-28T19:19:07.707Z,101395.56
2023-01-28T19:24:29.556Z,101400.66
2023-01-28T19:29:51.505Z,101406.97
2023-01-28T19:35:14.686Z,101403.56
2023-01-28T19:40:36.817Z,101387.91
2023-01-28T19:46:00.700Z,101408.44
2023-01-28T19:51:23.003Z,101425.28
2023-01-28T19:56:44.925Z,101429.53
2023-01-28T20:02:07.064Z,101403.88
2023-01-28T20:07:29.062Z,101436.19
2023-01-28T20:12:50.914Z,101430.63
2023-01-28T20:18:12.811Z,101430.09
2023-01-28T20:23:34.702Z,101440.50
2023-01-28T20:28:59.473Z,101429.06
2023-01-28T20:34:21.422Z,101421.31
2023-01-28T20:39:43.236Z,101446.91
2023-01-28T20:45:05.623Z,101442.22
2023-01-28T20:50:27.711Z,101454.38
2023-01-28T20:55:57.571Z,101449.56
2023-01-28T21:01:22.462Z,101455.41
2023-01-28T21:06:44.458Z,101452.91
2023-01-28T21:12:07.350Z,101474.66
2023-01-28T21:17:30.073Z,101472.31
2023-01-28T21:22:55.611Z,101471.28
2023-01-28T21:28:18.986Z,101453.16
2023-01-28T21:33:41.306Z,101441.38
2023-01-28T21:39:05.002Z,101434.00
2023-01-28T21:44:27.273Z,101427.44
2023-01-28T21:49:49.101Z,101443.16
2023-01-28T21:55:11.037Z,101420.25
2023-01-28T22:00:33.312Z,101429.47
2023-01-28T22:05:55.607Z,101427.44
2023-01-28T22:11:17.802Z,101402.94
2023-01-28T22:16:39.899Z,101402.16
2023-01-28T22:22:01.849Z,101398.88
2023-01-28T22:27:23.690Z,101409.50
2023-01-28T22:32:45.537Z,101379.25
2023-01-28T22:38:07.425Z,101412.88
2023-01-28T22:43:29.286Z,101410.19
2023-01-28T22:48:51.677Z,101412.63
2023-01-28T22:54:13.592Z,101428.53
2023-01-28T22:59:35.467Z,101431.84
2023-01-28T23:04:57.327Z,101445.22
2023-01-28T23:10:19.666Z,101446.13
2023-01-28T23:15:41.694Z,101454.56
2023-01-28T23:21:03.794Z,101441.19
2023-01-28T23:26:25.697Z,101437.78
2023-01-28T23:31:48.109Z,101408.50
2023-01-28T23:37:11.381Z,101434.97
2023-01-28T23:42:33.292Z,101419.47
2023-01-28T23:47:55.173Z,101422.09
2023-01-28T23:53:17.027Z,101415.25
2023-01-28T23:58:43.646Z,101424.63
